createdAt,value
2023-10-09T00:02:15.266Z,27.17
2023-10-09T00:04:44.377Z,28.90
2023-10-09T00:07:12.668Z,33.57
2023-10-09T00:09:49.552Z,34.17
2023-10-09T00:12:24.983Z,31.17
2023-10-09T00:14:56.949Z,29.50
2023-10-09T00:17:24.730Z,38.53
2023-10-09T00:20:01.242Z,32.10
2023-10-09T00:22:29.932Z,29.00
2023-10-09T00:25:11.660Z,37.30
2023-10-09T00:27:47.283Z,41.43
2023-10-09T00:30:23.162Z,35.60
2023-10-09T00:32:59.687Z,35.20
2023-10-09T00:35:38.178Z,26.17
2023-10-09T00:38:35.837Z,32.10
2023-10-09T00:41:21.546Z,27.33
2023-10-09T00:43:50.817Z,26.10
2023-10-09T00:46:23.064Z,24.73
2023-10-09T00:48:55.380Z,26.10
2023-10-09T00:51:23.477Z,36.77
2023-10-09T00:53:54.650Z,25.87
2023-10-09T00:56:25.766Z,34.13
2023-10-09T00:59:08.119Z,30.13
2023-10-09T01:01:37.663Z,26.07
2023-10-09T01:04:25.651Z,26.70
2023-10-09T01:07:09.276Z,33.17
2023-10-09T01:09:39.339Z,41.27
2023-10-09T01:12:06.689Z,31.97
2023-10-09T01:14:42.292Z,26.47
2023-10-09T01:17:10.521Z,28.50
2023-10-09T01:19:37.714Z,28.07
2023-10-09T01:22:14.500Z,30.00
2023-10-09T01:24:41.811Z,35.33
2023-10-09T01:27:16.045Z,32.87
2023-10-09T01:29:44.911Z,30.67
2023-10-09T01:32:21.511Z,25.10
2023-10-09T01:34:51.576Z,28.07
2023-10-09T01:37:24.347Z,27.10
2023-10-09T01:39:53.048Z,30.50
2023-10-09T01:42:36.410Z,37.87
2023-10-09T01:45:13.351Z,34.73
2023-10-09T01:47:40.981Z,39.57
2023-10-09T01:50:23.561Z,32.10
2023-10-09T01:52:52.366Z,36.17
2023-10-09T01:55:40.796Z,39.70
2023-10-09T01:58:29.031Z,38.70
2023-10-09T02:00:56.811Z,38.67
2023-10-09T02:03:28.408Z,36.17
2023-10-09T02:06:17.951Z,37.50
2023-10-09T02:08:51.042Z,36.07
2023-10-09T02:11:25.493Z,44.43
2023-10-09T02:13:56.785Z,35.40
2023-10-09T02:16:29.863Z,36.67
2023-10-09T02:18:57.770Z,32.23
2023-10-09T02:21:41.594Z,40.70
2023-10-09T02:24:27.600Z,34.20
2023-10-09T02:26:54.553Z,39.70
2023-10-09T02:29:25.705Z,37.60
2023-10-09T02:31:53.199Z,41.37
2023-10-09T02:34:23.434Z,44.20
2023-10-09T02:36:50.788Z,41.37
2023-10-09T02:39:31.576Z,47.10
2023-10-09T02:42:21.954Z,38.00
2023-10-09T02:44:50.913Z,38.37
2023-10-09T02:47:21.924Z,46.73
2023-10-09T02:49:49.554Z,36.63
2023-10-09T02:52:20.506Z,48.53
2023-10-09T02:54:48.449Z,38.33
2023-10-09T02:57:24.946Z,36.30
2023-10-09T02:59:54.620Z,35.60
2023-10-09T03:02:21.528Z,38.30
2023-10-09T03:04:48.716Z,37.27
2023-10-09T03:07:15.644Z,40.83
2023-10-09T03:09:42.570Z,38.67
2023-10-09T03:12:13.271Z,44.90
2023-10-09T03:14:45.394Z,35.23
2023-10-09T03:17:13.106Z,36.30
2023-10-09T03:19:41.298Z,39.67
2023-10-09T03:22:12.734Z,36.40
2023-10-09T03:24:48.690Z,37.50
2023-10-09T03:27:17.649Z,33.30
2023-10-09T03:29:50.498Z,33.63
2023-10-09T03:32:17.421Z,40.40
2023-10-09T03:34:44.905Z,37.90
2023-10-09T03:37:23.431Z,49.07
2023-10-09T03:39:56.154Z,35.13
2023-10-09T03:42:24.159Z,34.00
2023-10-09T03:44:54.556Z,32.77
2023-10-09T03:47:23.626Z,31.93
2023-10-09T03:49:54.809Z,35.60
2023-10-09T03:52:26.864Z,34.63
2023-10-09T03:54:54.548Z,30.83
2023-10-09T03:57:21.860Z,32.90
2023-10-09T03:59:49.238Z,28.60
2023-10-09T04:02:17.514Z,45.23
2023-10-09T04:04:48.876Z,32.80
2023-10-09T04:07:19.044Z,34.50
2023-10-09T04:09:49.610Z,35.20
2023-10-09T04:12:26.256Z,35.47
2023-10-09T04:14:58.508Z,32.30
2023-10-09T04:17:25.703Z,27.30
2023-10-09T04:20:11.816Z,37.47
2023-10-09T04:23:00.313Z,28.47
2023-10-09T04:25:28.244Z,38.03
2023-10-09T04:28:10.012Z,35.30
2023-10-09T04:30:41.848Z,32.77
2023-10-09T04:33:29.687Z,32.67
2023-10-09T04:36:33.556Z,31.10
2023-10-09T04:39:03.217Z,35.53
2023-10-09T04:41:42.398Z,24.73
2023-10-09T04:44:30.626Z,34.73
2023-10-09T04:47:15.956Z,36.33
2023-10-09T04:49:49.334Z,28.20
2023-10-09T04:52:26.586Z,30.93
2023-10-09T04:55:08.920Z,33.90
2023-10-09T04:57:44.544Z,29.10
2023-10-09T05:00:28.505Z,26.40
2023-10-09T05:03:06.117Z,23.43
2023-10-09T05:05:42.701Z,25.03
2023-10-09T05:08:20.226Z,31.80
2023-10-09T05:11:00.566Z,26.87
2023-10-09T05:13:42.105Z,23.93
2023-10-09T05:16:23.977Z,32.10
2023-10-09T05:18:57.708Z,24.60
2023-10-09T05:21:34.276Z,23.50
2023-10-09T05:24:14.718Z,27.37
2023-10-09T05:26:50.125Z,30.90
2023-10-09T05:29:35.694Z,28.40
2023-10-09T05:32:13.265Z,25.97
2023-10-09T05:35:00.384Z,23.03
2023-10-09T05:37:36.313Z,22.73
2023-10-09T05:40:20.192Z,30.00
2023-10-09T05:42:58.719Z,26.07
2023-10-09T05:45:45.172Z,24.57
2023-10-09T05:48:14.862Z,26.97
2023-10-09T05:51:00.590Z,29.23
2023-10-09T05:53:45.638Z,27.33
2023-10-09T05:56:31.463Z,25.90
2023-10-09T05:59:01.303Z,27.27
2023-10-09T06:01:46.560Z,24.20
2023-10-09T06:04:16.619Z,25.03
2023-10-09T06:06:45.758Z,26.90
2023-10-09T06:09:16.982Z,26.97
2023-10-09T06:12:12.160Z,25.57
2023-10-09T06:14:39.057Z,33.83
2023-10-09T06:17:14.776Z,20.87
2023-10-09T06:19:45.577Z,27.20
2023-10-09T06:22:31.037Z,29.40
2023-10-09T06:24:58.834Z,32.10
2023-10-09T06:27:31.908Z,25.47
2023-10-09T06:30:18.427Z,35.00
2023-10-09T06:33:04.042Z,31.97
2023-10-09T06:35:34.674Z,23.63
2023-10-09T06:38:04.474Z,28.10
2023-10-09T06:41:09.629Z,26.33
2023-10-09T06:43:37.877Z,26.97
2023-10-09T06:46:23.191Z,28.90
2023-10-09T06:48:59.007Z,23.50
2023-10-09T06:51:25.994Z,27.93
2023-10-09T06:53:57.805Z,27.47
2023-10-09T06:56:31.653Z,29.50
2023-10-09T06:59:16.935Z,28.60
2023-10-09T07:01:45.492Z,27.80
2023-10-09T07:04:34.083Z,35.93
2023-10-09T07:07:03.070Z,27.13
2023-10-09T07:10:04.880Z,26.07
2023-10-09T07:12:35.454Z,29.70
2023-10-09T07:15:23.653Z,29.37
2023-10-09T07:17:53.816Z,24.40
2023-10-09T07:20:39.410Z,29.07
2023-10-09T07:23:15.428Z,29.23
2023-10-09T07:25:43.416Z,29.83
2023-10-09T07:28:30.329Z,29.37
2023-10-09T07:31:00.887Z,35.50
2023-10-09T07:33:34.805Z,30.27
2023-10-09T07:36:09.178Z,24.80
2023-10-09T07:38:39.262Z,33.00
2023-10-09T07:41:06.048Z,26.30
2023-10-09T07:43:41.119Z,30.20
2023-10-09T07:46:27.711Z,27.50
2023-10-09T07:48:56.286Z,29.93
2023-10-09T07:51:25.344Z,26.57
2023-10-09T07:53:58.347Z,32.07
2023-10-09T07:56:25.751Z,29.57
2023-10-09T07:58:53.197Z,32.53
2023-10-09T08:01:29.445Z,34.53
2023-10-09T08:04:03.038Z,31.97
2023-10-09T08:06:39.556Z,26.00
2023-10-09T08:09:19.825Z,28.50
2023-10-09T08:12:10.893Z,38.77
2023-10-09T08:14:37.647Z,29.87
2023-10-09T08:17:22.447Z,25.70
2023-10-09T08:19:59.147Z,27.60
2023-10-09T08:22:27.642Z,25.70
2023-10-09T08:24:57.711Z,26.97
2023-10-09T08:27:34.039Z,25.97
2023-10-09T08:30:20.678Z,32.37
2023-10-09T08:35:36.814Z,34.63
2023-10-09T08:38:09.689Z,30.33
2023-10-09T08:40:44.497Z,34.10
2023-10-09T08:43:33.954Z,30.37
2023-10-09T08:46:02.290Z,29.17
2023-10-09T08:48:30.360Z,32.57
2023-10-09T08:50:58.044Z,25.33
2023-10-09T08:53:25.613Z,29.60
2023-10-09T08:55:52.550Z,32.23
2023-10-09T08:58:22.025Z,34.20
2023-10-09T09:00:51.089Z,30.10
2023-10-09T09:03:19.689Z,26.00
2023-10-09T09:05:50.690Z,38.27
2023-10-09T09:08:29.750Z,35.07
2023-10-09T09:11:13.103Z,29.67
2023-10-09T09:13:50.926Z,27.30
2023-10-09T09:16:22.684Z,28.13
2023-10-09T09:19:02.063Z,29.90
2023-10-09T09:21:30.440Z,29.43
2023-10-09T09:24:07.520Z,30.90
2023-10-09T09:26:46.214Z,29.47
2023-10-09T09:29:19.663Z,28.93
2023-10-09T09:31:54.814Z,27.23
2023-10-09T09:34:30.508Z,34.53
2023-10-09T09:36:59.932Z,34.83
2023-10-09T09:39:41.731Z,26.67
2023-10-09T09:42:18.289Z,25.63
2023-10-09T09:44:49.515Z,29.37
2023-10-09T09:47:29.429Z,26.20
2023-10-09T09:50:01.464Z,29.13
2023-10-09T09:52:40.163Z,29.97
2023-10-09T09:55:15.801Z,25.23
2023-10-09T09:57:53.301Z,38.13
2023-10-09T10:00:32.561Z,32.20
2023-10-09T10:03:07.577Z,26.83
2023-10-09T10:05:37.026Z,33.30
2023-10-09T10:08:06.579Z,28.80
2023-10-09T10:10:51.053Z,33.23
2023-10-09T10:13:29.338Z,31.13
2023-10-09T10:16:15.378Z,21.80
2023-10-09T10:19:09.163Z,27.93
2023-10-09T10:21:42.003Z,35.60
2023-10-09T10:24:31.928Z,28.17
2023-10-09T10:27:27.350Z,22.73
2023-10-09T10:30:14.617Z,33.27
2023-10-09T10:32:54.743Z,26.53
2023-10-09T10:35:44.278Z,26.63
2023-10-09T10:38:34.910Z,30.67
2023-10-09T10:41:12.906Z,32.83
2023-10-09T10:43:53.846Z,26.83
2023-10-09T10:46:24.554Z,30.90
2023-10-09T10:49:00.847Z,28.37
2023-10-09T10:51:39.661Z,32.47
2023-10-09T10:54:28.952Z,28.57
2023-10-09T10:56:59.604Z,30.83
2023-10-09T10:59:34.361Z,35.10
2023-10-09T11:02:11.568Z,29.50
2023-10-09T11:04:39.806Z,21.43
2023-10-09T11:07:10.444Z,28.23
2023-10-09T11:10:07.359Z,30.30
2023-10-09T11:13:11.543Z,30.67
2023-10-09T11:16:00.272Z,30.13
2023-10-09T11:18:28.888Z,26.83
2023-10-09T11:21:04.454Z,25.70
2023-10-09T11:23:36.094Z,38.27
2023-10-09T11:26:27.460Z,27.87
2023-10-09T11:29:20.240Z,32.10
2023-10-09T11:32:02.422Z,25.00
2023-10-09T11:34:33.393Z,34.53
2023-10-09T11:37:03.787Z,31.30
2023-10-09T11:39:35.818Z,26.43
2023-10-09T11:42:09.650Z,35.63
2023-10-09T11:44:55.819Z,26.53
2023-10-09T11:47:25.509Z,33.23
2023-10-09T11:50:05.954Z,26.47
2023-10-09T11:52:38.353Z,32.00
2023-10-09T11:55:18.733Z,28.13
2023-10-09T11:57:45.993Z,29.07
2023-10-09T12:00:32.281Z,26.40
2023-10-09T12:03:06.614Z,26.63
2023-10-09T12:05:34.990Z,29.83
2023-10-09T12:08:03.971Z,28.13
2023-10-09T12:10:31.023Z,26.20
2023-10-09T12:13:00.949Z,30.20
2023-10-09T12:15:35.283Z,27.47
2023-10-09T12:18:02.925Z,31.17
2023-10-09T12:20:33.211Z,33.03
2023-10-09T12:23:07.333Z,27.57
2023-10-09T12:25:36.527Z,41.60
2023-10-09T12:28:04.898Z,27.53
2023-10-09T12:30:32.380Z,26.83
2023-10-09T12:32:59.593Z,21.23
2023-10-09T12:35:26.710Z,29.90
2023-10-09T12:37:55.735Z,26.37
2023-10-09T12:40:25.316Z,26.90
2023-10-09T12:42:53.840Z,25.07
2023-10-09T12:45:27.237Z,25.33
2023-10-09T12:48:00.076Z,36.30
2023-10-09T12:50:30.277Z,26.17
2023-10-09T12:52:57.942Z,33.43
2023-10-09T12:55:33.178Z,21.83
2023-10-09T12:58:07.543Z,26.10
2023-10-09T13:00:39.932Z,26.20
2023-10-09T13:03:21.057Z,24.13
2023-10-09T13:05:59.370Z,27.30
2023-10-09T13:08:36.249Z,39.43
2023-10-09T13:11:12.422Z,25.77
2023-10-09T13:13:41.638Z,38.00
2023-10-09T13:16:32.785Z,38.40
2023-10-09T13:19:10.432Z,49.03
2023-10-09T13:21:41.819Z,36.00
2023-10-09T13:24:17.022Z,24.33
2023-10-09T13:26:52.403Z,25.07
2023-10-09T13:29:25.339Z,28.93
2023-10-09T13:31:59.374Z,33.00
2023-10-09T13:34:29.365Z,24.50
2023-10-09T13:37:10.356Z,24.30
2023-10-09T13:39:41.227Z,25.83
2023-10-09T13:42:12.322Z,24.93
2023-10-09T13:44:43.031Z,28.03
2023-10-09T13:47:20.774Z,26.60
2023-10-09T13:49:51.947Z,30.03
2023-10-09T13:52:23.241Z,29.33
2023-10-09T13:54:51.572Z,33.67
2023-10-09T13:57:18.471Z,25.63
2023-10-09T13:59:50.381Z,27.60
2023-10-09T14:02:19.328Z,24.63
2023-10-09T14:04:51.357Z,23.97
2023-10-09T14:07:18.309Z,25.27
2023-10-09T14:09:45.506Z,25.13
2023-10-09T14:12:15.323Z,25.57
2023-10-09T14:14:50.198Z,25.30
2023-10-09T14:17:25.104Z,27.87
2023-10-09T14:19:54.394Z,20.67
2023-10-09T14:22:27.775Z,24.00
2023-10-09T14:24:59.137Z,22.50
2023-10-09T14:27:30.493Z,28.53
2023-10-09T14:30:00.569Z,29.27
2023-10-09T14:32:35.941Z,22.37
2023-10-09T14:35:03.792Z,25.63
2023-10-09T14:37:32.333Z,22.43
2023-10-09T14:40:00.093Z,21.33
2023-10-09T14:42:29.283Z,24.70
2023-10-09T14:44:59.552Z,19.37
2023-10-09T14:47:27.142Z,25.57
2023-10-09T14:49:55.186Z,22.27
2023-10-09T14:52:22.362Z,26.80
2023-10-09T14:54:51.531Z,20.97
2023-10-09T14:57:19.472Z,21.77
2023-10-09T14:59:47.322Z,24.27
2023-10-09T15:02:14.422Z,20.47
2023-10-09T15:04:41.772Z,21.23
2023-10-09T15:07:08.924Z,23.90
2023-10-09T15:09:37.860Z,21.93
2023-10-09T15:12:07.721Z,18.70
2023-10-09T15:14:35.130Z,20.37
2023-10-09T15:17:04.326Z,24.70
2023-10-09T15:19:31.367Z,21.70
2023-10-09T15:22:00.097Z,18.77
2023-10-09T15:24:31.384Z,18.77
2023-10-09T15:26:58.948Z,18.43
2023-10-09T15:29:31.990Z,22.10
2023-10-09T15:32:06.298Z,21.13
2023-10-09T15:34:36.143Z,19.63
2023-10-09T15:37:05.078Z,21.47
2023-10-09T15:39:33.046Z,19.90
2023-10-09T15:42:00.233Z,25.43
2023-10-09T15:44:28.830Z,15.00
2023-10-09T15:47:01.079Z,17.13
2023-10-09T15:49:28.937Z,24.90
2023-10-09T15:51:56.031Z,22.00
2023-10-09T15:54:22.856Z,24.10
2023-10-09T15:56:56.237Z,22.67
2023-10-09T15:59:36.681Z,20.47
2023-10-09T16:02:04.522Z,23.10
2023-10-09T16:04:35.135Z,22.80
2023-10-09T16:07:02.685Z,21.10
2023-10-09T16:09:32.303Z,26.93
2023-10-09T16:11:59.208Z,21.17
2023-10-09T16:14:25.990Z,23.70
2023-10-09T16:16:56.629Z,21.87
2023-10-09T16:19:24.104Z,22.53
2023-10-09T16:21:53.517Z,28.17
2023-10-09T16:24:20.693Z,21.20
2023-10-09T16:26:52.232Z,18.63
2023-10-09T16:29:19.343Z,21.30
2023-10-09T16:31:46.744Z,21.20
2023-10-09T16:34:16.212Z,18.13
2023-10-09T16:36:43.280Z,26.27
2023-10-09T16:39:19.722Z,25.00
2023-10-09T16:41:47.358Z,20.70
2023-10-09T16:44:17.832Z,25.63
2023-10-09T16:46:48.938Z,24.50
2023-10-09T16:49:16.112Z,13.00
2023-10-09T16:51:44.154Z,13.40
2023-10-09T16:54:16.603Z,17.87
2023-10-09T16:56:44.586Z,19.67
2023-10-09T16:59:17.359Z,16.20
2023-10-09T17:01:46.094Z,15.53
2023-10-09T17:04:17.850Z,14.60
2023-10-09T17:06:45.810Z,19.80
2023-10-09T17:09:13.674Z,25.07
2023-10-09T17:11:42.088Z,20.10
2023-10-09T17:14:14.035Z,19.40
2023-10-09T17:16:46.904Z,17.70
2023-10-09T17:19:15.619Z,23.13
2023-10-09T17:21:42.832Z,22.47
2023-10-09T17:27:00.028Z,24.43
2023-10-09T17:29:28.272Z,25.13
2023-10-09T17:31:55.536Z,24.33
2023-10-09T17:34:24.719Z,19.73
2023-10-09T17:36:51.936Z,19.83
2023-10-09T17:39:27.115Z,20.57
2023-10-09T17:41:56.504Z,23.80
2023-10-09T17:44:23.391Z,27.40
2023-10-09T17:46:50.935Z,21.10
2023-10-09T17:49:17.955Z,22.37
2023-10-09T17:51:44.770Z,23.50
2023-10-09T17:54:14.550Z,22.43
2023-10-09T17:56:41.663Z,23.53
2023-10-09T17:59:13.151Z,23.17
2023-10-09T18:01:40.385Z,23.37
2023-10-09T18:04:07.366Z,23.83
2023-10-09T18:06:36.246Z,26.17
2023-10-09T18:12:04.608Z,15.53
2023-10-09T18:14:31.708Z,32.23
2023-10-09T18:16:58.835Z,15.50
2023-10-09T18:19:25.800Z,18.63
2023-10-09T18:21:52.664Z,21.23
2023-10-09T18:24:20.072Z,18.60
2023-10-09T18:26:47.711Z,14.97
2023-10-09T18:29:15.088Z,14.73
2023-10-09T18:31:44.711Z,16.90
2023-10-09T18:34:11.598Z,20.97
2023-10-09T18:36:40.133Z,16.90
2023-10-09T18:39:09.436Z,25.17
2023-10-09T18:41:36.567Z,19.37
2023-10-09T18:44:10.737Z,17.33
2023-10-09T18:46:39.400Z,16.00
2023-10-09T18:49:06.457Z,22.50
2023-10-09T18:51:35.835Z,19.50
2023-10-09T18:54:05.538Z,17.43
2023-10-09T18:56:34.078Z,14.33
2023-10-09T18:59:01.674Z,25.77
2023-10-09T19:01:30.266Z,18.23
2023-10-09T19:03:57.116Z,16.73
2023-10-09T19:06:26.303Z,16.83
2023-10-09T19:08:56.139Z,20.13
2023-10-09T19:11:24.880Z,17.00
2023-10-09T19:13:52.086Z,31.57
2023-10-09T19:16:19.084Z,20.00
2023-10-09T19:18:46.209Z,18.17
2023-10-09T19:21:14.826Z,24.17
2023-10-09T19:23:46.032Z,22.90
2023-10-09T19:26:15.646Z,18.23
2023-10-09T19:28:44.385Z,18.87
2023-10-09T19:31:13.210Z,24.17
2023-10-09T19:33:42.726Z,17.50
2023-10-09T19:36:24.615Z,16.90
2023-10-09T19:38:51.732Z,16.00
2023-10-09T19:41:24.248Z,27.07
2023-10-09T19:43:53.144Z,20.37
2023-10-09T19:46:20.282Z,19.53
2023-10-09T19:48:48.534Z,24.90
2023-10-09T19:51:18.381Z,26.10
2023-10-09T19:53:46.468Z,24.80
2023-10-09T19:56:14.219Z,21.87
2023-10-09T19:58:42.053Z,25.07
2023-10-09T20:01:10.898Z,32.73
2023-10-09T20:03:38.067Z,26.77
2023-10-09T20:06:05.489Z,19.67
2023-10-09T20:08:36.778Z,22.53
2023-10-09T20:11:08.168Z,26.30
2023-10-09T20:13:35.575Z,25.30
2023-10-09T20:16:04.302Z,23.67
2023-10-09T20:18:31.868Z,27.57
2023-10-09T20:21:07.588Z,26.80
2023-10-09T20:23:34.808Z,23.40
2023-10-09T20:26:06.483Z,24.07
2023-10-09T20:28:36.669Z,20.90
2023-10-09T20:31:05.129Z,24.50
2023-10-09T20:33:36.452Z,18.73
2023-10-09T20:36:17.262Z,26.83
2023-10-09T20:38:49.024Z,27.20
2023-10-09T20:41:17.671Z,23.87
2023-10-09T20:43:45.363Z,28.03
2023-10-09T20:46:16.630Z,18.40
2023-10-09T20:48:46.172Z,22.03
2023-10-09T20:51:17.120Z,24.30
2023-10-09T20:53:44.796Z,24.03
2023-10-09T20:56:12.227Z,18.50
2023-10-09T20:58:42.987Z,22.33
2023-10-09T21:01:16.038Z,22.07
2023-10-09T21:03:46.442Z,28.77
2023-10-09T21:06:15.106Z,20.83
2023-10-09T21:08:43.203Z,23.20
2023-10-09T21:11:10.256Z,26.80
2023-10-09T21:13:37.982Z,23.57
2023-10-09T21:16:06.083Z,21.07
2023-10-09T21:18:33.585Z,24.27
2023-10-09T21:21:03.470Z,29.27
2023-10-09T21:23:33.189Z,25.30
2023-10-09T21:26:00.464Z,20.47
2023-10-09T21:28:27.326Z,25.13
2023-10-09T21:30:54.430Z,23.20
2023-10-09T21:33:21.304Z,28.10
2023-10-09T21:35:48.391Z,23.17
2023-10-09T21:38:15.309Z,22.83
2023-10-09T21:40:42.092Z,26.00
2023-10-09T21:43:10.183Z,34.30
2023-10-09T21:45:45.860Z,23.37
2023-10-09T21:48:13.398Z,27.23
2023-10-09T21:50:42.352Z,24.97
2023-10-09T21:53:09.363Z,24.90
2023-10-09T21:55:37.054Z,34.30
2023-10-09T21:58:08.263Z,22.10
2023-10-09T22:00:37.397Z,21.00
2023-10-09T22:03:08.863Z,23.60
2023-10-09T22:05:42.900Z,26.90
2023-10-09T22:08:11.485Z,40.63
2023-10-09T22:10:40.150Z,24.73
2023-10-09T22:13:08.728Z,22.90
2023-10-09T22:15:35.784Z,25.63
2023-10-09T22:18:10.575Z,31.20
2023-10-09T22:20:38.021Z,24.03
2023-10-09T22:23:11.976Z,25.80
2023-10-09T22:25:38.846Z,26.80
2023-10-09T22:28:11.044Z,31.90
2023-10-09T22:30:38.464Z,24.23
2023-10-09T22:33:12.940Z,19.40
2023-10-09T22:35:46.392Z,20.97
2023-10-09T22:38:16.743Z,30.80
2023-10-09T22:40:49.615Z,21.70
2023-10-09T22:43:21.505Z,25.77
2023-10-09T22:45:52.148Z,25.87
2023-10-09T22:48:28.807Z,29.13
2023-10-09T22:51:11.354Z,26.43
2023-10-09T22:53:40.086Z,33.27
2023-10-09T22:56:08.637Z,34.13
2023-10-09T22:58:39.601Z,32.13
2023-10-09T23:01:19.688Z,27.10
2023-10-09T23:04:06.976Z,34.90
2023-10-09T23:06:35.199Z,30.60
2023-10-09T23:09:06.927Z,29.77
2023-10-09T23:11:34.370Z,28.27
2023-10-09T23:14:16.752Z,29.83
2023-10-09T23:16:50.237Z,29.87
2023-10-09T23:19:35.582Z,38.93
2023-10-09T23:22:26.200Z,23.60
2023-10-09T23:24:54.729Z,23.63
2023-10-09T23:27:38.790Z,29.17
2023-10-09T23:30:17.565Z,24.73
2023-10-09T23:32:55.428Z,23.63
2023-10-09T23:35:43.116Z,28.10
2023-10-09T23:38:24.077Z,27.53
2023-10-09T23:40:50.956Z,33.73
2023-10-09T23:43:39.010Z,26.80
2023-10-09T23:46:09.162Z,23.97
2023-10-09T23:48:38.574Z,31.77
2023-10-09T23:51:13.782Z,28.47
2023-10-09T23:53:47.836Z,28.80
2023-10-09T23:56:34.880Z,34.33
2023-10-09T23:59:02.668Z,29.43
